• Join FlightAware (Why Join?)
  • Login
  • US Flag 
05:13AM EST


 

Airport Tracker/Info


-or-


 

Live Flight TrackerFlight Track Log ✈ SCX8701 ✈ 23-May-2014 ✈ KNGU - KNIP

Flight Track Log - Related Links

Times and Time Zones

All times are in EDT time to prevent confusion due to time zone crossing. See the SCX8701 flight status page for this flight to view local times or setup timezone preferences in your user account.

Time Position Orientation Groundspeed Altitude Reporting Facility
EDT Latitude Longitude Course Direction KTS MPH feet Rate Location/Type
06:19AM 36.9361 -76.3169 264° West 156 180 600  Level Washington Center
06:20AM 36.9294 -76.4000 264° West 239 275 3,300 2,580 Climbing Washington Center
06:21AM 36.9183 -76.4778 260° West 253 291 6,300 2,640 Climbing Washington Center
06:26AM 36.3973 -76.4708 204° Southwest 394 453 19,900 2,460 Climbing FlightAware ADS-B
06:27AM 36.3025 -76.5250 204° Southwest 399 459 21,700 1,860 Climbing Washington Center
06:28AM 36.2000 -76.5803 204° Southwest 404 465 23,700 1,800 Climbing Washington Center
06:29AM 36.1053 -76.6589 214° Southwest 404 465 25,400 1,560 Climbing Washington Center
06:30AM 36.0189 -76.7528 221° Southwest 415 478 26,800 1,380 Climbing Washington Center
06:31AM 35.9303 -76.8489 221° Southwest 421 484 28,200 1,320 Climbing Washington Center
06:32AM 35.8394 -76.9553 224° Southwest 434 499 29,500 1,440 Climbing Washington Center
06:33AM 35.7464 -77.0558 221° Southwest 444 511 31,200 1,560 Climbing Washington Center
06:34AM 35.6725 -77.1414 223° Southwest 444 511 32,700 1,440 Climbing Washington Center
06:35AM 35.5833 -77.2394 222° Southwest 434 499 34,100 1,140 Climbing Washington Center
06:36AM 35.4944 -77.3344 221° Southwest 429 494 35,100 960 Climbing Washington Center
06:37AM 35.4033 -77.4319 221° Southwest 424 488 36,100 900 Climbing Washington Center
06:38AM 35.3142 -77.5292 222° Southwest 424 488 37,000 960 Climbing Washington Center
06:39AM 35.2250 -77.6236 221° Southwest 424 488 38,000 480 Climbing Washington Center
06:40AM 35.1378 -77.7178 221° Southwest 424 488 38,000  Level Washington Center
06:41AM 35.0483 -77.8119 221° Southwest 419 482 38,000  Level Washington Center
06:42AM 34.9611 -77.9058 221° Southwest 419 482 38,000  Level Washington Center
06:43AM 34.8736 -77.9994 221° Southwest 419 482 38,000 -60 Level Washington Center
06:44AM 34.7775 -78.1081 223° Southwest 424 488 37,900  Descending Washington Center
06:45AM 34.6881 -78.2011 221° Southwest 424 488 38,000  Climbing Washington Center
06:51AM 34.2052 -78.7224 221° Southwest 427 491 38,000  Level FlightAware ADS-B (KINT)
06:52AM 34.0796 -78.8549 221° Southwest 428 493 38,000  Level FlightAware ADS-B (KINT)
06:53AM 33.9840 -78.9555 221° Southwest 428 493 38,000  Level FlightAware ADS-B (KINT)
06:54AM 33.9038 -79.0395 221° Southwest 430 495 38,000 -60 Level FlightAware ADS-B (KINT)
06:56AM 33.7725 -79.1500 221° Southwest 438 504 37,900  Descending Jacksonville Center
06:57AM 33.6853 -79.2361 219° Southwest 433 498 38,000  Climbing Jacksonville Center
06:58AM 33.5942 -79.3319 221° Southwest 433 498 38,000  Level Jacksonville Center
06:59AM 33.5008 -79.4256 220° Southwest 433 498 38,000  Level Jacksonville Center
07:00AM 33.4072 -79.5186 220° Southwest 439 505 38,000 -120 Level Jacksonville Center
07:01AM 33.3181 -79.6139 222° Southwest 439 505 37,800 -600 Descending Jacksonville Center
07:02AM 33.2244 -79.7044 219° Southwest 444 511 36,800 -960 Descending Jacksonville Center
07:03AM 33.1328 -79.7969 220° Southwest 444 511 35,900 -960 Descending Jacksonville Center
07:04AM 33.0389 -79.8919 220° Southwest 444 511 34,900 -960 Descending Jacksonville Center
07:05AM 32.9472 -79.9814 219° Southwest 444 511 34,000 -480 Descending Jacksonville Center
07:06AM 32.8469 -80.0689 216° Southwest 444 511 34,000 -60 Level Jacksonville Center
07:07AM 32.7464 -80.1461 213° Southwest 444 511 33,900 -360 Descending Jacksonville Center
07:08AM 32.6414 -80.2233 212° Southwest 444 511 33,300 -840 Descending Jacksonville Center
07:09AM 32.5408 -80.2978 212° Southwest 444 511 32,300 -1,020 Descending Jacksonville Center
07:10AM 32.4378 -80.3694 210° Southwest 439 505 31,300 -1,020 Descending Jacksonville Center
07:11AM 32.3283 -80.4317 206° Southwest 434 499 30,300 -660 Descending Jacksonville Center
07:12AM 32.2292 -80.4858 205° Southwest 410 472 30,000 -180 Descending Jacksonville Center
07:13AM 32.1364 -80.5372 205° Southwest 402 463 30,000 -60 Level Jacksonville Center
07:14AM 32.0225 -80.5989 205° Southwest 408 470 29,900 -600 Descending Jacksonville Center
07:15AM 31.9194 -80.6603 207° Southwest 408 470 28,900 -960 Descending Jacksonville Center
07:16AM 31.8261 -80.7067 203° Southwest 414 476 28,000 -1,020 Descending Jacksonville Center
07:17AM 31.7125 -80.7703 205° Southwest 414 476 26,900 -1,080 Descending Jacksonville Center
07:18AM 31.6111 -80.8264 205° Southwest 414 476 25,900 -960 Descending Jacksonville Center
07:19AM 31.5242 -80.8744 205° Southwest 403 464 25,000 -1,080 Descending Jacksonville Center
07:20AM 31.4144 -80.9331 205° Southwest 395 455 23,800 -1,500 Descending Jacksonville Center
07:21AM 31.3275 -80.9808 205° Southwest 390 449 22,100 -1,680 Descending Jacksonville Center
07:22AM 31.2258 -81.0364 205° Southwest 380 437 20,500 -1,980 Descending Jacksonville Center
07:23AM 31.1431 -81.0817 205° Southwest 370 426 18,200 -2,100 Descending Jacksonville Center
07:24AM 31.0478 -81.1297 203° Southwest 369 425 16,400 -1,200 Descending Jacksonville Center
07:25AM 30.9567 -81.1822 206° Southwest 357 411 15,900 -240 Descending Jacksonville Center
07:26AM 30.8675 -81.2275 204° Southwest 347 399 16,000 -720 Climbing Jacksonville Center
07:27AM 30.7803 -81.2772 206° Southwest 357 411 14,500 -2,040 Descending Jacksonville Center
07:27AM 30.6953 -81.3222 204° Southwest 352 405 12,100 -2,040 Descending Jacksonville Center
07:28AM 30.6061 -81.3672 203° Southwest 350 403 10,600 -1,200 Descending Jacksonville Center
07:29AM 30.5294 -81.4119 207° Southwest 300 345 9,700 -1,140 Descending Jacksonville Center
07:31AM 30.4506 -81.4517 203° Southwest 307 353 8,300 -1,500 Descending Jacksonville Center
07:32AM 30.3669 -81.4408 174° South 289 333 6,600 -1,380 Descending Jacksonville Center
07:33AM 30.2958 -81.4297 172° South 280 322 5,600 -960 Descending Jacksonville Center
07:34AM 30.2372 -81.4381 187° South 175 201 4,700 -1,200 Descending Jacksonville Center
07:35AM 30.2253 -81.4861 254° West 157 181 3,100 -1,260 Descending Jacksonville Center
07:36AM 30.2322 -81.5342 280° West 155 178 2,200 -840 Descending Jacksonville Center
07:37AM 30.2306 -81.5847 268° West 152 175 1,500 -840 Descending Jacksonville Center
07:38AM 30.2311 -81.6256 271° West 139 160 700 -900 Descending Jacksonville Center
07:40AM 30.2333 -81.6667 245° Southwest  Level FlightAware Approximate